createdAt,value
2019-04-20T00:01:40.846Z,15.40
2019-04-20T00:04:20.506Z,15.30
2019-04-20T00:06:48.378Z,15.20
2019-04-20T00:09:21.081Z,15.10
2019-04-20T00:12:01.518Z,15.10
2019-04-20T00:14:26.258Z,15.20
2019-04-20T00:16:54.687Z,15.30
2019-04-20T00:19:31.908Z,15.30
2019-04-20T00:22:07.916Z,15.40
2019-04-20T00:25:11.899Z,15.30
2019-04-20T00:28:16.520Z,15.30
2019-04-20T00:30:51.790Z,15.30
2019-04-20T00:33:14.868Z,15.30
2019-04-20T00:35:35.832Z,15.10
2019-04-20T00:38:07.729Z,15.10
2019-04-20T00:40:39.173Z,15.20
2019-04-20T00:43:14.140Z,15.30
2019-04-20T00:45:46.846Z,15.30
2019-04-20T00:48:22.543Z,15.20
2019-04-20T00:51:13.858Z,15.00
2019-04-20T00:53:31.410Z,14.80
2019-04-20T00:55:57.058Z,14.90
2019-04-20T00:58:35.228Z,14.90
2019-04-20T01:01:23.676Z,14.90
2019-04-20T01:03:47.315Z,14.90
2019-04-20T01:06:31.808Z,14.90
2019-04-20T01:08:53.015Z,14.90
2019-04-20T01:11:30.931Z,15.00
2019-04-20T01:14:02.171Z,14.90
2019-04-20T01:16:36.846Z,14.80
2019-04-20T01:19:00.072Z,15.00
2019-04-20T01:21:33.449Z,15.00
2019-04-20T01:24:07.025Z,15.10
2019-04-20T01:26:45.194Z,14.90
2019-04-20T01:29:20.207Z,14.80
2019-04-20T01:31:58.227Z,14.90
2019-04-20T01:34:26.985Z,14.70
2019-04-20T01:37:00.659Z,14.70
2019-04-20T01:39:27.646Z,14.70
2019-04-20T01:41:49.780Z,14.50
2019-04-20T01:44:26.101Z,14.60
2019-04-20T01:46:57.948Z,14.60
2019-04-20T01:49:28.633Z,14.70
2019-04-20T01:52:07.351Z,14.70
2019-04-20T01:54:48.202Z,14.60
2019-04-20T01:57:25.986Z,14.50
2019-04-20T02:00:14.427Z,14.50
2019-04-20T02:02:48.858Z,14.30
2019-04-20T02:05:22.864Z,14.30
2019-04-20T02:07:51.013Z,14.30
2019-04-20T02:10:31.119Z,14.30
2019-04-20T02:12:59.379Z,14.30
2019-04-20T02:15:32.974Z,14.30
2019-04-20T02:18:11.796Z,14.20
2019-04-20T02:20:48.961Z,14.10
2019-04-20T02:23:14.560Z,14.10
2019-04-20T02:25:35.685Z,14.10
2019-04-20T02:28:22.314Z,14.10
2019-04-20T02:31:17.915Z,14.10
2019-04-20T02:36:47.941Z,14.10
2019-04-20T02:39:23.907Z,14.00
2019-04-20T02:41:44.695Z,14.20
2019-04-20T02:44:19.307Z,14.00
2019-04-20T02:46:48.953Z,13.80
2019-04-20T02:56:58.823Z,13.80
2019-04-20T03:01:49.160Z,13.70
2019-04-20T03:04:04.334Z,13.70
2019-04-20T03:06:48.438Z,13.80
2019-04-20T03:09:27.247Z,13.80
2019-04-20T03:12:03.400Z,13.80
2019-04-20T03:14:29.270Z,13.80
2019-04-20T03:17:03.243Z,13.90
2019-04-20T03:19:30.326Z,13.90
2019-04-20T03:22:13.668Z,14.00
2019-04-20T03:24:50.035Z,14.00
2019-04-20T03:27:19.202Z,14.00
2019-04-20T03:30:39.874Z,14.00
2019-04-20T03:35:22.483Z,13.40
2019-04-20T03:37:52.512Z,13.50
2019-04-20T03:40:19.307Z,13.20
2019-04-20T03:42:37.073Z,13.10
2019-04-20T03:45:13.164Z,12.40
2019-04-20T03:47:52.811Z,12.40
2019-04-20T03:50:35.581Z,12.40
2019-04-20T03:53:13.942Z,12.30
2019-04-20T03:55:56.615Z,12.20
2019-04-20T03:58:47.227Z,12.10
2019-04-20T04:04:25.288Z,12.00
2019-04-20T04:06:46.390Z,12.20
2019-04-20T04:09:21.235Z,12.20
2019-04-20T04:11:56.002Z,12.00
2019-04-20T04:14:13.626Z,12.00
2019-04-20T04:16:49.752Z,12.10
2019-04-20T04:19:23.228Z,12.20
2019-04-20T04:22:06.098Z,12.00
2019-04-20T04:24:31.603Z,12.00
2019-04-20T04:27:05.666Z,12.00
2019-04-20T04:29:46.662Z,11.90
2019-04-20T04:32:37.546Z,11.90
2019-04-20T04:34:48.586Z,11.90
2019-04-20T04:37:24.119Z,11.90
2019-04-20T04:40:12.807Z,12.00
2019-04-20T04:42:27.654Z,11.90
2019-04-20T04:44:48.461Z,11.90
2019-04-20T04:47:13.411Z,11.90
2019-04-20T04:49:49.938Z,11.90
2019-04-20T04:52:27.124Z,11.80
2019-04-20T04:54:56.657Z,12.00
2019-04-20T04:57:22.237Z,11.90
2019-04-20T04:59:53.103Z,11.90
2019-04-20T05:02:29.690Z,12.00
2019-04-20T05:05:31.005Z,12.10
2019-04-20T05:07:52.130Z,12.30
2019-04-20T05:10:14.054Z,12.30
2019-04-20T05:12:46.064Z,12.40
2019-04-20T05:15:34.829Z,12.70
2019-04-20T05:18:11.896Z,12.90
2019-04-20T05:20:46.860Z,12.90
2019-04-20T05:23:29.504Z,13.00
2019-04-20T05:26:14.189Z,13.10
2019-04-20T05:28:36.850Z,13.20
2019-04-20T05:31:03.070Z,13.50
2019-04-20T05:33:58.285Z,13.50
2019-04-20T05:36:23.466Z,13.60
2019-04-20T05:39:02.725Z,14.30
2019-04-20T05:41:21.589Z,14.40
2019-04-20T05:43:59.482Z,14.60
2019-04-20T05:46:36.241Z,15.00
2019-04-20T05:49:10.035Z,15.30
2019-04-20T05:51:45.089Z,15.10
2019-04-20T05:54:15.560Z,14.90
2019-04-20T05:56:47.767Z,15.00
2019-04-20T05:59:17.612Z,15.20
2019-04-20T06:01:53.198Z,15.30
2019-04-20T06:04:28.179Z,15.40
2019-04-20T06:06:56.405Z,15.90
2019-04-20T06:09:28.010Z,16.10
2019-04-20T06:12:07.782Z,16.60
2019-04-20T06:14:36.756Z,17.20
2019-04-20T06:17:46.188Z,17.50
2019-04-20T06:20:07.788Z,17.70
2019-04-20T06:22:42.768Z,17.80
2019-04-20T06:27:51.199Z,17.90
2019-04-20T06:30:18.891Z,18.30
2019-04-20T06:34:18.218Z,18.70
2019-04-20T06:36:27.562Z,19.00
2019-04-20T06:39:02.381Z,18.90
2019-04-20T06:41:46.574Z,18.50
2019-04-20T06:44:06.506Z,18.60
2019-04-20T06:46:36.262Z,18.60
2019-04-20T06:49:10.129Z,18.50
2019-04-20T06:51:42.326Z,18.20
2019-04-20T06:54:12.443Z,18.50
2019-04-20T06:56:54.045Z,18.90
2019-04-20T06:59:36.029Z,19.20
2019-04-20T07:02:02.897Z,19.40
2019-04-20T07:04:49.978Z,19.40
2019-04-20T07:07:18.434Z,19.50
2019-04-20T07:09:48.050Z,19.50
2019-04-20T07:12:05.463Z,19.70
2019-04-20T07:14:35.788Z,19.80
2019-04-20T07:17:29.837Z,20.70
2019-04-20T07:19:50.129Z,21.20
2019-04-20T07:22:34.684Z,21.50
2019-04-20T07:25:12.838Z,21.10
2019-04-20T07:27:36.875Z,21.20
2019-04-20T07:30:12.054Z,21.60
2019-04-20T07:32:48.339Z,22.20
2019-04-20T07:35:14.482Z,22.40
2019-04-20T07:40:24.470Z,22.60
2019-04-20T07:42:57.650Z,22.70
2019-04-20T07:45:29.628Z,22.70
2019-04-20T07:48:07.815Z,22.50
2019-04-20T07:50:29.527Z,23.00
2019-04-20T07:53:07.175Z,22.80
2019-04-20T07:55:47.775Z,22.80
2019-04-20T07:58:07.696Z,22.60
2019-04-20T08:00:55.164Z,22.20
2019-04-20T08:03:42.602Z,22.50
2019-04-20T08:06:13.631Z,22.60
2019-04-20T08:08:54.706Z,22.30
2019-04-20T08:11:32.076Z,22.10
2019-04-20T08:14:05.668Z,22.10
2019-04-20T08:16:46.687Z,22.40
2019-04-20T08:18:59.692Z,22.20
2019-04-20T08:21:43.700Z,22.50
2019-04-20T08:24:07.037Z,23.20
2019-04-20T08:26:29.968Z,22.80
2019-04-20T08:29:14.881Z,23.00
2019-04-20T08:32:04.818Z,23.10
2019-04-20T08:34:41.686Z,23.00
2019-04-20T08:37:06.100Z,23.30
2019-04-20T08:39:52.160Z,23.00
2019-04-20T08:42:13.080Z,22.80
2019-04-20T08:47:32.372Z,22.70
2019-04-20T08:50:21.018Z,22.60
2019-04-20T08:55:19.837Z,22.80
2019-04-20T08:57:33.606Z,23.20
2019-04-20T09:00:06.868Z,23.70
2019-04-20T09:02:41.225Z,24.00
2019-04-20T09:05:24.889Z,23.80
2019-04-20T09:07:53.830Z,23.90
2019-04-20T09:10:37.977Z,24.10
2019-04-20T09:13:03.986Z,24.50
2019-04-20T09:15:23.376Z,24.00
2019-04-20T09:18:00.664Z,23.70
2019-04-20T09:20:42.124Z,24.10
2019-04-20T09:23:21.757Z,23.80
2019-04-20T09:26:02.382Z,23.90
2019-04-20T09:28:40.513Z,24.60
2019-04-20T09:31:22.645Z,24.70
2019-04-20T09:34:11.721Z,24.00
2019-04-20T09:36:43.482Z,24.20
2019-04-20T09:39:18.632Z,24.70
2019-04-20T09:42:01.055Z,24.60
2019-04-20T09:44:33.662Z,24.60
2019-04-20T09:47:03.280Z,24.20
2019-04-20T09:49:42.475Z,24.90
2019-04-20T09:52:16.989Z,26.00
2019-04-20T09:54:54.883Z,27.50
2019-04-20T09:57:29.523Z,27.60
2019-04-20T10:00:02.934Z,28.00
2019-04-20T10:02:22.197Z,28.40
2019-04-20T10:04:47.652Z,29.50
2019-04-20T10:07:21.757Z,29.90
2019-04-20T10:09:50.625Z,29.50
2019-04-20T10:12:22.244Z,30.30
2019-04-20T10:14:53.255Z,31.10
2019-04-20T10:17:23.662Z,29.60
2019-04-20T10:19:55.586Z,28.70
2019-04-20T10:22:26.777Z,29.30
2019-04-20T10:24:57.829Z,30.00
2019-04-20T10:27:28.795Z,30.50
2019-04-20T10:30:03.768Z,31.40
2019-04-20T10:32:38.900Z,31.00
2019-04-20T10:35:04.522Z,31.30
2019-04-20T10:37:39.789Z,31.50
2019-04-20T10:40:11.491Z,31.50
2019-04-20T10:42:42.193Z,32.20
2019-04-20T10:45:13.237Z,31.30
2019-04-20T10:47:45.193Z,30.60
2019-04-20T10:50:17.214Z,31.70
2019-04-20T10:52:47.744Z,31.80
2019-04-20T10:55:18.690Z,31.20
2019-04-20T10:57:49.548Z,32.30
2019-04-20T11:00:37.779Z,32.10
2019-04-20T11:03:08.169Z,31.70
2019-04-20T11:05:40.373Z,31.00
2019-04-20T11:08:11.110Z,30.10
2019-04-20T11:10:55.538Z,28.60
2019-04-20T11:13:15.166Z,27.50
2019-04-20T11:15:46.406Z,26.40
2019-04-20T11:18:17.714Z,25.90
2019-04-20T11:20:49.147Z,25.00
2019-04-20T11:23:20.376Z,24.70
2019-04-20T11:25:50.856Z,25.00
2019-04-20T11:28:21.981Z,24.50
2019-04-20T11:30:52.399Z,24.60
2019-04-20T11:33:24.439Z,24.80
2019-04-20T11:35:55.143Z,24.50
2019-04-20T11:38:26.092Z,24.20
2019-04-20T11:41:08.335Z,24.10
2019-04-20T11:43:29.284Z,23.90
2019-04-20T11:46:00.549Z,23.90
2019-04-20T11:48:31.703Z,24.40
2019-04-20T11:51:03.512Z,24.80
2019-04-20T11:53:34.402Z,24.90
2019-04-20T11:56:06.699Z,25.00
2019-04-20T11:58:38.670Z,24.50
2019-04-20T12:01:44.087Z,24.50
2019-04-20T12:04:27.098Z,24.30
2019-04-20T12:06:48.742Z,24.50
2019-04-20T12:09:19.295Z,24.60
2019-04-20T12:12:02.150Z,24.60
2019-04-20T12:14:22.939Z,24.60
2019-04-20T12:16:53.445Z,24.70
2019-04-20T12:19:24.872Z,24.50
2019-04-20T12:21:55.893Z,24.30
2019-04-20T12:24:26.548Z,24.10
2019-04-20T12:26:56.981Z,24.20
2019-04-20T12:29:27.956Z,24.00
2019-04-20T12:32:02.278Z,24.00
2019-04-20T12:34:30.795Z,24.00
2019-04-20T12:37:01.095Z,24.20
2019-04-20T12:39:31.448Z,24.20
2019-04-20T12:42:05.917Z,24.40
2019-04-20T12:44:35.500Z,24.30
2019-04-20T12:47:05.929Z,24.40
2019-04-20T12:49:37.787Z,24.40
2019-04-20T12:52:08.528Z,24.60
2019-04-20T12:54:41.706Z,24.70
2019-04-20T12:57:11.038Z,24.50
2019-04-20T12:59:44.397Z,24.40
2019-04-20T13:02:15.413Z,24.50
2019-04-20T13:04:46.242Z,24.50
2019-04-20T13:07:17.686Z,24.40
2019-04-20T13:09:52.750Z,24.60
2019-04-20T13:12:42.671Z,24.50
2019-04-20T13:15:56.281Z,24.40
2019-04-20T13:18:32.864Z,24.50
2019-04-20T13:21:03.309Z,24.50
2019-04-20T13:23:35.055Z,24.50
2019-04-20T13:26:07.455Z,24.50
2019-04-20T13:28:37.547Z,24.60
2019-04-20T13:31:09.103Z,24.50
2019-04-20T13:33:40.939Z,24.50
2019-04-20T13:36:12.464Z,24.60
2019-04-20T13:38:44.099Z,24.60
2019-04-20T13:41:15.759Z,24.40
2019-04-20T13:43:47.980Z,24.30
2019-04-20T13:46:18.924Z,24.00
2019-04-20T13:48:50.958Z,24.20
2019-04-20T13:51:23.006Z,24.50
2019-04-20T13:53:53.425Z,24.60
2019-04-20T13:56:25.877Z,24.70
2019-04-20T13:59:14.099Z,24.60
2019-04-20T14:02:04.802Z,24.90
2019-04-20T14:04:39.028Z,24.80
2019-04-20T14:07:12.531Z,24.80
2019-04-20T14:09:43.567Z,24.90
2019-04-20T14:12:23.176Z,25.20
2019-04-20T14:14:46.906Z,25.00
2019-04-20T14:17:17.336Z,24.90
2019-04-20T14:19:49.243Z,24.90
2019-04-20T14:22:20.864Z,25.00
2019-04-20T14:24:51.245Z,24.90
2019-04-20T14:27:21.553Z,24.80
2019-04-20T14:29:52.925Z,24.80
2019-04-20T14:32:24.923Z,24.80
2019-04-20T14:34:56.512Z,24.90
2019-04-20T14:37:27.075Z,25.00
2019-04-20T14:39:58.488Z,24.90
2019-04-20T14:42:37.403Z,24.90
2019-04-20T14:45:01.916Z,25.00
2019-04-20T14:47:33.890Z,24.90
2019-04-20T14:50:05.408Z,25.10
2019-04-20T14:52:35.701Z,25.10
2019-04-20T14:55:07.736Z,25.10
2019-04-20T14:57:39.384Z,24.80
2019-04-20T15:00:27.783Z,24.90
2019-04-20T15:03:01.837Z,24.90
2019-04-20T15:05:32.887Z,25.00
2019-04-20T15:08:04.716Z,24.90
2019-04-20T15:10:36.566Z,24.90
2019-04-20T15:13:08.485Z,25.00
2019-04-20T15:15:40.646Z,25.10
2019-04-20T15:18:13.431Z,24.90
2019-04-20T15:20:47.804Z,24.90
2019-04-20T15:23:21.608Z,24.90
2019-04-20T15:25:52.777Z,24.90
2019-04-20T15:28:24.190Z,25.10
2019-04-20T15:30:56.159Z,25.30
2019-04-20T15:33:27.221Z,25.10
2019-04-20T15:35:59.956Z,25.20
2019-04-20T15:38:31.301Z,25.00
2019-04-20T15:41:03.034Z,24.90
2019-04-20T15:43:35.208Z,24.80
2019-04-20T15:46:07.487Z,24.80
2019-04-20T15:48:38.085Z,24.90
2019-04-20T15:51:09.947Z,24.90
2019-04-20T15:53:41.688Z,24.80
2019-04-20T15:56:12.087Z,24.80
2019-04-20T15:58:42.465Z,24.70
2019-04-20T16:01:14.396Z,24.70
2019-04-20T16:03:51.093Z,24.70
2019-04-20T16:06:23.076Z,24.80
2019-04-20T16:08:56.445Z,24.80
2019-04-20T16:11:26.894Z,24.70
2019-04-20T16:13:58.160Z,24.70
2019-04-20T16:16:30.090Z,24.70
2019-04-20T16:19:03.954Z,25.00
2019-04-20T16:21:35.705Z,25.00
2019-04-20T16:24:18.987Z,25.00
2019-04-20T16:27:11.730Z,24.80
2019-04-20T16:29:43.850Z,24.80
2019-04-20T16:32:16.537Z,24.80
2019-04-20T16:34:46.987Z,24.70
2019-04-20T16:37:17.624Z,24.60
2019-04-20T16:39:48.369Z,24.60
2019-04-20T16:42:20.281Z,24.50
2019-04-20T16:44:51.384Z,24.40
2019-04-20T16:47:22.082Z,24.50
2019-04-20T16:49:52.860Z,24.60
2019-04-20T16:52:23.187Z,24.60
2019-04-20T16:54:55.567Z,24.50
2019-04-20T16:57:27.760Z,24.40
2019-04-20T16:59:59.560Z,24.40
2019-04-20T17:02:30.404Z,24.30
2019-04-20T17:05:01.071Z,24.10
2019-04-20T17:07:35.334Z,23.90
2019-04-20T17:10:07.518Z,23.90
2019-04-20T17:12:38.070Z,23.80
2019-04-20T17:15:11.779Z,23.80
2019-04-20T17:17:43.513Z,23.70
2019-04-20T17:20:15.726Z,23.60
2019-04-20T17:22:46.485Z,23.70
2019-04-20T17:25:17.542Z,23.60
2019-04-20T17:27:59.464Z,23.60
2019-04-20T17:30:58.990Z,23.40
2019-04-20T17:33:53.373Z,23.30
2019-04-20T17:36:21.795Z,23.40
2019-04-20T17:38:54.399Z,23.20
2019-04-20T17:41:40.180Z,23.20
2019-04-20T17:44:09.932Z,23.10
2019-04-20T17:46:39.381Z,23.10
2019-04-20T17:49:15.851Z,23.00
2019-04-20T17:51:52.339Z,23.20
2019-04-20T17:54:21.844Z,23.00
2019-04-20T17:56:53.952Z,22.80
2019-04-20T17:59:26.196Z,22.60
2019-04-20T18:02:25.117Z,22.30
2019-04-20T18:05:19.822Z,22.30
2019-04-20T18:07:58.906Z,22.30
2019-04-20T18:10:19.023Z,22.30
2019-04-20T18:12:37.450Z,22.00
2019-04-20T18:15:21.253Z,21.90
2019-04-20T18:17:58.794Z,21.90
2019-04-20T18:20:28.053Z,21.90
2019-04-20T18:22:58.819Z,21.60
2019-04-20T18:25:58.877Z,21.60
2019-04-20T18:28:15.162Z,21.50
2019-04-20T18:30:53.653Z,21.50
2019-04-20T18:33:17.946Z,21.40
2019-04-20T18:35:49.510Z,21.30
2019-04-20T18:38:20.231Z,21.20
2019-04-20T18:40:55.969Z,21.10
2019-04-20T18:43:25.632Z,21.20
2019-04-20T18:46:13.435Z,20.90
2019-04-20T18:48:52.303Z,20.90
2019-04-20T18:50:59.784Z,21.00
2019-04-20T18:53:37.464Z,21.00
2019-04-20T18:56:04.349Z,20.90
2019-04-20T18:58:35.385Z,20.70
2019-04-20T19:01:05.732Z,20.40
2019-04-20T19:03:40.845Z,20.50
2019-04-20T19:06:09.484Z,20.60
2019-04-20T19:08:46.352Z,20.40
2019-04-20T19:11:16.536Z,20.50
2019-04-20T19:13:57.955Z,20.30
2019-04-20T19:16:56.820Z,20.20
2019-04-20T19:19:31.998Z,20.30
2019-04-20T19:21:54.554Z,20.10
2019-04-20T19:24:29.525Z,20.10
2019-04-20T19:27:02.977Z,20.00
2019-04-20T19:29:35.638Z,20.00
2019-04-20T19:32:19.513Z,20.00
2019-04-20T19:34:47.523Z,19.80
2019-04-20T19:37:15.649Z,19.80
2019-04-20T19:39:50.686Z,19.60
2019-04-20T19:42:27.436Z,19.30
2019-04-20T19:45:00.471Z,19.10
2019-04-20T19:47:34.801Z,18.90
2019-04-20T19:50:19.665Z,18.80
2019-04-20T19:52:44.766Z,18.70
2019-04-20T19:55:10.631Z,18.70
2019-04-20T19:57:42.790Z,18.50
2019-04-20T19:59:58.195Z,18.40
2019-04-20T20:02:29.829Z,18.30
2019-04-20T20:05:05.389Z,18.30
2019-04-20T20:07:41.206Z,18.30
2019-04-20T20:10:07.766Z,18.30
2019-04-20T20:12:39.845Z,18.10
2019-04-20T20:15:15.828Z,17.90
2019-04-20T20:17:58.845Z,17.80
2019-04-20T20:20:38.206Z,17.80
2019-04-20T20:22:50.411Z,17.60
2019-04-20T20:25:24.601Z,17.60
2019-04-20T20:27:58.456Z,17.60
2019-04-20T20:30:33.191Z,17.50
2019-04-20T20:33:11.538Z,17.70
2019-04-20T20:35:41.308Z,17.50
2019-04-20T20:38:14.792Z,17.40
2019-04-20T20:40:39.655Z,17.40
2019-04-20T20:43:18.434Z,17.50
2019-04-20T20:45:49.729Z,17.60
2019-04-20T20:48:30.228Z,17.60
2019-04-20T20:51:07.829Z,17.70
2019-04-20T20:53:32.896Z,17.70
2019-04-20T20:56:01.974Z,17.60
2019-04-20T20:58:40.670Z,17.40
2019-04-20T21:01:04.485Z,17.30
2019-04-20T21:03:34.664Z,17.50
2019-04-20T21:06:00.960Z,17.60
2019-04-20T21:08:31.604Z,17.60
2019-04-20T21:11:04.894Z,17.50
2019-04-20T21:13:40.157Z,17.40
2019-04-20T21:16:14.939Z,17.40
2019-04-20T21:18:54.680Z,17.40
2019-04-20T21:21:27.465Z,17.40
2019-04-20T21:23:53.089Z,17.40
2019-04-20T21:26:23.675Z,17.30
2019-04-20T21:28:52.251Z,17.50
2019-04-20T21:31:27.300Z,17.40
2019-04-20T21:33:55.225Z,17.40
2019-04-20T21:36:29.315Z,17.40
2019-04-20T21:38:58.173Z,17.40
2019-04-20T21:41:29.476Z,17.30
2019-04-20T21:44:01.315Z,17.50
2019-04-20T21:46:39.781Z,17.40
2019-04-20T21:49:21.791Z,17.40
2019-04-20T21:51:44.548Z,17.40
2019-04-20T21:54:09.604Z,17.20
2019-04-20T21:56:46.144Z,17.20
2019-04-20T21:59:20.808Z,17.00
2019-04-20T22:01:55.125Z,17.00
2019-04-20T22:04:19.897Z,17.20
2019-04-20T22:06:50.151Z,17.20
2019-04-20T22:09:25.072Z,17.30
2019-04-20T22:11:53.880Z,17.30
2019-04-20T22:14:27.561Z,17.00
2019-04-20T22:16:59.180Z,16.90
2019-04-20T22:19:39.347Z,17.00
2019-04-20T22:22:12.918Z,17.00
2019-04-20T22:24:55.719Z,16.80
2019-04-20T22:27:14.815Z,16.90
2019-04-20T22:29:38.749Z,16.90
2019-04-20T22:32:13.250Z,17.00
2019-04-20T22:34:41.846Z,16.70
2019-04-20T22:37:15.305Z,16.50
2019-04-20T22:39:52.368Z,16.40
2019-04-20T22:42:21.384Z,16.40
2019-04-20T22:44:58.697Z,16.40
2019-04-20T22:47:28.908Z,16.30
2019-04-20T22:50:15.101Z,16.40
2019-04-20T22:52:42.958Z,16.30
2019-04-20T22:55:28.284Z,16.30
2019-04-20T22:57:48.672Z,16.30
2019-04-20T23:00:14.599Z,16.40
2019-04-20T23:02:42.717Z,16.30
2019-04-20T23:05:13.258Z,16.50
2019-04-20T23:07:44.356Z,16.40
2019-04-20T23:10:18.199Z,16.50
2019-04-20T23:12:53.262Z,16.50
2019-04-20T23:15:20.893Z,16.20
2019-04-20T23:17:52.691Z,16.00
2019-04-20T23:20:27.735Z,16.10
2019-04-20T23:22:56.831Z,16.10
2019-04-20T23:25:27.272Z,16.20
2019-04-20T23:28:04.834Z,15.80
2019-04-20T23:30:34.032Z,15.60
2019-04-20T23:33:04.169Z,15.40
2019-04-20T23:35:37.606Z,15.40
2019-04-20T23:38:14.369Z,15.30
2019-04-20T23:40:41.734Z,15.20
2019-04-20T23:43:24.527Z,15.20
2019-04-20T23:46:08.300Z,15.30
2019-04-20T23:48:44.816Z,15.20
2019-04-20T23:51:36.353Z,15.30
2019-04-20T23:53:56.458Z,15.20
2019-04-20T23:56:20.848Z,15.40
2019-04-20T23:58:53.452Z,15.10
